sensor_id;sensor_type;location;lat;lon;timestamp;P1;durP1;ratioP1;P2;durP2;ratioP2
28170;SDS011;15458;53.346;-1.688;2023-03-01T00:01:38;8.98;;;2.40;;
28170;SDS011;15458;53.346;-1.688;2023-03-01T00:04:06;4.95;;;2.30;;
28170;SDS011;15458;53.346;-1.688;2023-03-01T00:06:32;10.35;;;2.45;;
28170;SDS011;15458;53.346;-1.688;2023-03-01T00:09:04;6.72;;;2.58;;
28170;SDS011;15458;53.346;-1.688;2023-03-01T00:11:33;5.93;;;3.00;;
28170;SDS011;15458;53.346;-1.688;2023-03-01T00:14:02;8.02;;;3.10;;
28170;SDS011;15458;53.346;-1.688;2023-03-01T00:16:38;7.63;;;3.30;;
28170;SDS011;15458;53.346;-1.688;2023-03-01T00:19:12;6.15;;;2.78;;
28170;SDS011;15458;53.346;-1.688;2023-03-01T00:24:56;4.82;;;2.50;;
28170;SDS011;15458;53.346;-1.688;2023-03-01T00:27:22;5.22;;;2.50;;
28170;SDS011;15458;53.346;-1.688;2023-03-01T00:29:47;5.15;;;2.75;;
28170;SDS011;15458;53.346;-1.688;2023-03-01T00:32:13;4.28;;;2.63;;
28170;SDS011;15458;53.346;-1.688;2023-03-01T00:34:42;5.88;;;2.97;;
28170;SDS011;15458;53.346;-1.688;2023-03-01T00:37:19;5.55;;;2.60;;
28170;SDS011;15458;53.346;-1.688;2023-03-01T00:39:49;6.93;;;4.03;;
28170;SDS011;15458;53.346;-1.688;2023-03-01T00:42:15;6.30;;;3.67;;
28170;SDS011;15458;53.346;-1.688;2023-03-01T00:44:44;8.98;;;3.92;;
28170;SDS011;15458;53.346;-1.688;2023-03-01T00:47:10;7.25;;;3.83;;
28170;SDS011;15458;53.346;-1.688;2023-03-01T00:49:36;10.98;;;4.22;;
28170;SDS011;15458;53.346;-1.688;2023-03-01T00:52:02;8.75;;;4.00;;
28170;SDS011;15458;53.346;-1.688;2023-03-01T00:54:28;7.15;;;3.67;;
28170;SDS011;15458;53.346;-1.688;2023-03-01T00:56:54;7.68;;;3.88;;
28170;SDS011;15458;53.346;-1.688;2023-03-01T00:59:20;10.65;;;3.95;;
28170;SDS011;15458;53.346;-1.688;2023-03-01T01:01:45;7.53;;;3.88;;
28170;SDS011;15458;53.346;-1.688;2023-03-01T01:04:13;6.50;;;3.70;;
28170;SDS011;15458;53.346;-1.688;2023-03-01T01:06:43;5.97;;;3.28;;
28170;SDS011;15458;53.346;-1.688;2023-03-01T01:09:14;6.85;;;2.70;;
28170;SDS011;15458;53.346;-1.688;2023-03-01T01:11:48;7.50;;;2.72;;
28170;SDS011;15458;53.346;-1.688;2023-03-01T01:14:15;7.68;;;3.45;;
28170;SDS011;15458;53.346;-1.688;2023-03-01T01:16:45;7.93;;;3.40;;
28170;SDS011;15458;53.346;-1.688;2023-03-01T01:19:13;6.57;;;3.33;;
28170;SDS011;15458;53.346;-1.688;2023-03-01T01:21:40;8.07;;;3.58;;
28170;SDS011;15458;53.346;-1.688;2023-03-01T01:24:08;7.53;;;3.72;;
28170;SDS011;15458;53.346;-1.688;2023-03-01T01:26:36;8.82;;;3.67;;
28170;SDS011;15458;53.346;-1.688;2023-03-01T01:29:03;5.53;;;3.28;;
28170;SDS011;15458;53.346;-1.688;2023-03-01T01:31:30;7.97;;;3.35;;
28170;SDS011;15458;53.346;-1.688;2023-03-01T01:33:57;14.60;;;4.93;;
28170;SDS011;15458;53.346;-1.688;2023-03-01T01:36:25;9.80;;;3.92;;
28170;SDS011;15458;53.346;-1.688;2023-03-01T01:38:51;14.27;;;5.03;;
28170;SDS011;15458;53.346;-1.688;2023-03-01T01:41:18;12.10;;;4.28;;
28170;SDS011;15458;53.346;-1.688;2023-03-01T01:46:55;8.88;;;4.20;;
28170;SDS011;15458;53.346;-1.688;2023-03-01T01:52:22;11.45;;;4.18;;
28170;SDS011;15458;53.346;-1.688;2023-03-01T01:54:54;9.80;;;3.95;;
28170;SDS011;15458;53.346;-1.688;2023-03-01T01:57:27;8.88;;;4.03;;
28170;SDS011;15458;53.346;-1.688;2023-03-01T02:00:04;9.02;;;3.40;;
28170;SDS011;15458;53.346;-1.688;2023-03-01T02:02:36;6.40;;;3.60;;
28170;SDS011;15458;53.346;-1.688;2023-03-01T02:05:34;8.15;;;2.70;;
28170;SDS011;15458;53.346;-1.688;2023-03-01T02:08:01;8.05;;;3.78;;
28170;SDS011;15458;53.346;-1.688;2023-03-01T02:10:27;5.50;;;2.55;;
28170;SDS011;15458;53.346;-1.688;2023-03-01T02:12:54;6.93;;;1.98;;
28170;SDS011;15458;53.346;-1.688;2023-03-01T02:15:23;5.38;;;2.33;;
28170;SDS011;15458;53.346;-1.688;2023-03-01T02:17:49;2.47;;;1.30;;
28170;SDS011;15458;53.346;-1.688;2023-03-01T02:20:19;2.95;;;1.30;;
28170;SDS011;15458;53.346;-1.688;2023-03-01T02:22:54;8.65;;;1.33;;
28170;SDS011;15458;53.346;-1.688;2023-03-01T02:27:55;1.35;;;0.82;;
28170;SDS011;15458;53.346;-1.688;2023-03-01T02:30:30;1.45;;;1.35;;
28170;SDS011;15458;53.346;-1.688;2023-03-01T02:32:57;3.80;;;1.27;;
28170;SDS011;15458;53.346;-1.688;2023-03-01T02:35:28;2.80;;;1.63;;
28170;SDS011;15458;53.346;-1.688;2023-03-01T02:38:00;2.63;;;1.10;;
28170;SDS011;15458;53.346;-1.688;2023-03-01T02:40:30;2.50;;;1.40;;
28170;SDS011;15458;53.346;-1.688;2023-03-01T02:45:24;4.32;;;1.77;;
28170;SDS011;15458;53.346;-1.688;2023-03-01T02:47:57;3.42;;;1.77;;
28170;SDS011;15458;53.346;-1.688;2023-03-01T02:55:26;2.22;;;1.73;;
28170;SDS011;15458;53.346;-1.688;2023-03-01T02:57:52;3.13;;;1.83;;
28170;SDS011;15458;53.346;-1.688;2023-03-01T03:00:24;3.72;;;2.47;;
28170;SDS011;15458;53.346;-1.688;2023-03-01T03:02:56;4.20;;;1.88;;
28170;SDS011;15458;53.346;-1.688;2023-03-01T03:05:25;3.13;;;1.92;;
28170;SDS011;15458;53.346;-1.688;2023-03-01T03:07:53;11.38;;;2.35;;
28170;SDS011;15458;53.346;-1.688;2023-03-01T03:13:01;5.80;;;3.17;;
28170;SDS011;15458;53.346;-1.688;2023-03-01T03:15:40;7.30;;;3.33;;
28170;SDS011;15458;53.346;-1.688;2023-03-01T03:18:09;5.88;;;2.95;;
28170;SDS011;15458;53.346;-1.688;2023-03-01T03:20:38;4.05;;;2.80;;
28170;SDS011;15458;53.346;-1.688;2023-03-01T03:23:05;5.75;;;2.65;;
28170;SDS011;15458;53.346;-1.688;2023-03-01T03:25:31;4.63;;;2.58;;
28170;SDS011;15458;53.346;-1.688;2023-03-01T03:27:57;4.90;;;3.00;;
28170;SDS011;15458;53.346;-1.688;2023-03-01T03:30:30;5.13;;;2.95;;
28170;SDS011;15458;53.346;-1.688;2023-03-01T03:32:57;5.82;;;2.95;;
28170;SDS011;15458;53.346;-1.688;2023-03-01T03:35:27;6.47;;;3.50;;
28170;SDS011;15458;53.346;-1.688;2023-03-01T03:37:59;4.70;;;2.63;;
28170;SDS011;15458;53.346;-1.688;2023-03-01T03:43:00;4.68;;;3.03;;
28170;SDS011;15458;53.346;-1.688;2023-03-01T03:45:26;5.22;;;2.65;;
28170;SDS011;15458;53.346;-1.688;2023-03-01T03:47:52;3.05;;;2.10;;
28170;SDS011;15458;53.346;-1.688;2023-03-01T03:50:18;2.30;;;1.73;;
28170;SDS011;15458;53.346;-1.688;2023-03-01T03:52:44;2.78;;;2.03;;
28170;SDS011;15458;53.346;-1.688;2023-03-01T03:55:10;1.70;;;1.00;;
28170;SDS011;15458;53.346;-1.688;2023-03-01T03:57:37;1.40;;;1.10;;
28170;SDS011;15458;53.346;-1.688;2023-03-01T04:00:05;1.30;;;1.02;;
28170;SDS011;15458;53.346;-1.688;2023-03-01T04:02:41;2.45;;;1.50;;
28170;SDS011;15458;53.346;-1.688;2023-03-01T04:05:08;2.78;;;1.70;;
28170;SDS011;15458;53.346;-1.688;2023-03-01T04:07:35;3.28;;;1.65;;
28170;SDS011;15458;53.346;-1.688;2023-03-01T04:10:03;3.75;;;1.67;;
28170;SDS011;15458;53.346;-1.688;2023-03-01T04:12:31;3.08;;;1.60;;
28170;SDS011;15458;53.346;-1.688;2023-03-01T04:14:59;1.85;;;1.50;;
28170;SDS011;15458;53.346;-1.688;2023-03-01T04:17:26;1.92;;;1.50;;
28170;SDS011;15458;53.346;-1.688;2023-03-01T04:19:52;2.28;;;1.30;;
28170;SDS011;15458;53.346;-1.688;2023-03-01T04:22:18;2.75;;;1.38;;
28170;SDS011;15458;53.346;-1.688;2023-03-01T04:24:44;2.80;;;1.45;;
28170;SDS011;15458;53.346;-1.688;2023-03-01T04:27:10;3.13;;;2.00;;
28170;SDS011;15458;53.346;-1.688;2023-03-01T04:29:36;2.25;;;1.50;;
28170;SDS011;15458;53.346;-1.688;2023-03-01T04:32:02;5.22;;;2.05;;
28170;SDS011;15458;53.346;-1.688;2023-03-01T04:34:28;2.88;;;1.98;;
28170;SDS011;15458;53.346;-1.688;2023-03-01T04:36:54;3.83;;;1.90;;
28170;SDS011;15458;53.346;-1.688;2023-03-01T04:39:20;5.95;;;1.92;;
28170;SDS011;15458;53.346;-1.688;2023-03-01T04:41:46;9.95;;;2.53;;
28170;SDS011;15458;53.346;-1.688;2023-03-01T04:44:12;9.00;;;3.08;;
28170;SDS011;15458;53.346;-1.688;2023-03-01T04:46:38;7.68;;;2.85;;
28170;SDS011;15458;53.346;-1.688;2023-03-01T04:49:04;5.28;;;2.50;;
28170;SDS011;15458;53.346;-1.688;2023-03-01T04:51:30;4.95;;;3.10;;
28170;SDS011;15458;53.346;-1.688;2023-03-01T04:53:57;9.95;;;3.45;;
28170;SDS011;15458;53.346;-1.688;2023-03-01T04:56:23;3.95;;;3.10;;
28170;SDS011;15458;53.346;-1.688;2023-03-01T04:58:49;4.68;;;2.70;;
28170;SDS011;15458;53.346;-1.688;2023-03-01T05:01:17;8.43;;;3.35;;
28170;SDS011;15458;53.346;-1.688;2023-03-01T05:03:45;4.63;;;3.30;;
28170;SDS011;15458;53.346;-1.688;2023-03-01T05:06:15;7.18;;;3.95;;
28170;SDS011;15458;53.346;-1.688;2023-03-01T05:08:42;6.90;;;4.20;;
28170;SDS011;15458;53.346;-1.688;2023-03-01T05:11:08;4.88;;;3.67;;
28170;SDS011;15458;53.346;-1.688;2023-03-01T05:13:35;7.70;;;3.50;;
28170;SDS011;15458;53.346;-1.688;2023-03-01T05:16:02;6.35;;;3.42;;
28170;SDS011;15458;53.346;-1.688;2023-03-01T05:18:29;6.25;;;2.97;;
28170;SDS011;15458;53.346;-1.688;2023-03-01T05:21:05;3.83;;;2.33;;
28170;SDS011;15458;53.346;-1.688;2023-03-01T05:23:33;4.22;;;2.50;;
28170;SDS011;15458;53.346;-1.688;2023-03-01T05:25:59;5.85;;;3.13;;
28170;SDS011;15458;53.346;-1.688;2023-03-01T05:28:26;7.20;;;2.88;;
28170;SDS011;15458;53.346;-1.688;2023-03-01T05:30:55;8.73;;;2.50;;
28170;SDS011;15458;53.346;-1.688;2023-03-01T05:33:22;4.88;;;2.80;;
28170;SDS011;15458;53.346;-1.688;2023-03-01T05:35:49;9.48;;;2.60;;
28170;SDS011;15458;53.346;-1.688;2023-03-01T05:38:16;8.10;;;2.83;;
28170;SDS011;15458;53.346;-1.688;2023-03-01T05:40:43;7.25;;;2.30;;
28170;SDS011;15458;53.346;-1.688;2023-03-01T05:43:11;5.22;;;2.33;;
28170;SDS011;15458;53.346;-1.688;2023-03-01T05:45:38;4.57;;;2.78;;
28170;SDS011;15458;53.346;-1.688;2023-03-01T05:48:05;5.05;;;2.53;;
28170;SDS011;15458;53.346;-1.688;2023-03-01T05:50:32;4.28;;;2.20;;
28170;SDS011;15458;53.346;-1.688;2023-03-01T05:53:05;6.80;;;2.15;;
28170;SDS011;15458;53.346;-1.688;2023-03-01T05:55:34;5.13;;;2.10;;
28170;SDS011;15458;53.346;-1.688;2023-03-01T05:58:02;2.40;;;1.55;;
28170;SDS011;15458;53.346;-1.688;2023-03-01T06:00:32;4.18;;;1.80;;
28170;SDS011;15458;53.346;-1.688;2023-03-01T06:02:59;4.15;;;1.88;;
28170;SDS011;15458;53.346;-1.688;2023-03-01T06:05:26;3.42;;;2.17;;
28170;SDS011;15458;53.346;-1.688;2023-03-01T06:07:52;3.20;;;2.20;;
28170;SDS011;15458;53.346;-1.688;2023-03-01T06:10:19;4.95;;;2.50;;
28170;SDS011;15458;53.346;-1.688;2023-03-01T06:12:47;5.57;;;2.33;;
28170;SDS011;15458;53.346;-1.688;2023-03-01T06:15:14;7.07;;;2.65;;
28170;SDS011;15458;53.346;-1.688;2023-03-01T06:17:41;8.05;;;2.75;;
28170;SDS011;15458;53.346;-1.688;2023-03-01T06:22:36;6.60;;;3.40;;
28170;SDS011;15458;53.346;-1.688;2023-03-01T06:25:03;9.57;;;3.13;;
28170;SDS011;15458;53.346;-1.688;2023-03-01T06:27:29;10.38;;;3.60;;
28170;SDS011;15458;53.346;-1.688;2023-03-01T06:29:55;8.40;;;3.10;;
28170;SDS011;15458;53.346;-1.688;2023-03-01T06:32:20;8.57;;;3.30;;
28170;SDS011;15458;53.346;-1.688;2023-03-01T06:34:46;6.55;;;3.05;;
28170;SDS011;15458;53.346;-1.688;2023-03-01T06:37:12;10.88;;;3.22;;
28170;SDS011;15458;53.346;-1.688;2023-03-01T06:39:38;6.70;;;2.83;;
28170;SDS011;15458;53.346;-1.688;2023-03-01T06:42:04;6.63;;;2.47;;
28170;SDS011;15458;53.346;-1.688;2023-03-01T06:44:30;4.20;;;2.40;;
28170;SDS011;15458;53.346;-1.688;2023-03-01T06:46:56;9.50;;;1.98;;
28170;SDS011;15458;53.346;-1.688;2023-03-01T06:49:21;5.55;;;1.70;;
28170;SDS011;15458;53.346;-1.688;2023-03-01T06:51:47;4.72;;;1.70;;
28170;SDS011;15458;53.346;-1.688;2023-03-01T06:54:13;6.57;;;1.63;;
28170;SDS011;15458;53.346;-1.688;2023-03-01T06:56:38;11.57;;;1.65;;
28170;SDS011;15458;53.346;-1.688;2023-03-01T06:59:04;4.50;;;1.63;;
28170;SDS011;15458;53.346;-1.688;2023-03-01T07:01:31;3.97;;;1.35;;
28170;SDS011;15458;53.346;-1.688;2023-03-01T07:03:57;3.65;;;1.77;;
28170;SDS011;15458;53.346;-1.688;2023-03-01T07:06:23;4.72;;;1.08;;
28170;SDS011;15458;53.346;-1.688;2023-03-01T07:08:48;6.22;;;1.60;;
28170;SDS011;15458;53.346;-1.688;2023-03-01T07:11:14;2.60;;;1.50;;
28170;SDS011;15458;53.346;-1.688;2023-03-01T07:13:40;3.97;;;1.38;;
28170;SDS011;15458;53.346;-1.688;2023-03-01T07:16:06;7.68;;;1.60;;
28170;SDS011;15458;53.346;-1.688;2023-03-01T07:18:33;4.55;;;1.33;;
28170;SDS011;15458;53.346;-1.688;2023-03-01T07:21:03;6.72;;;1.90;;
28170;SDS011;15458;53.346;-1.688;2023-03-01T07:23:29;3.78;;;1.50;;
28170;SDS011;15458;53.346;-1.688;2023-03-01T07:25:55;2.05;;;0.98;;
28170;SDS011;15458;53.346;-1.688;2023-03-01T07:28:24;2.80;;;1.08;;
28170;SDS011;15458;53.346;-1.688;2023-03-01T07:30:50;6.38;;;1.60;;
28170;SDS011;15458;53.346;-1.688;2023-03-01T07:33:16;2.75;;;1.30;;
28170;SDS011;15458;53.346;-1.688;2023-03-01T07:35:42;3.08;;;1.20;;
28170;SDS011;15458;53.346;-1.688;2023-03-01T07:38:08;7.10;;;1.50;;
28170;SDS011;15458;53.346;-1.688;2023-03-01T07:40:33;3.78;;;1.70;;
28170;SDS011;15458;53.346;-1.688;2023-03-01T07:42:59;3.92;;;1.38;;
28170;SDS011;15458;53.346;-1.688;2023-03-01T07:45:26;4.38;;;1.42;;
28170;SDS011;15458;53.346;-1.688;2023-03-01T07:47:53;3.65;;;1.23;;
28170;SDS011;15458;53.346;-1.688;2023-03-01T07:50:19;3.28;;;1.48;;
28170;SDS011;15458;53.346;-1.688;2023-03-01T07:52:45;2.33;;;1.10;;
28170;SDS011;15458;53.346;-1.688;2023-03-01T07:55:12;5.20;;;1.20;;
28170;SDS011;15458;53.346;-1.688;2023-03-01T07:57:38;3.10;;;1.00;;
28170;SDS011;15458;53.346;-1.688;2023-03-01T08:00:04;4.88;;;1.08;;
28170;SDS011;15458;53.346;-1.688;2023-03-01T08:02:33;4.55;;;1.20;;
28170;SDS011;15458;53.346;-1.688;2023-03-01T08:04:59;4.72;;;1.20;;
28170;SDS011;15458;53.346;-1.688;2023-03-01T08:07:24;2.05;;;1.13;;
28170;SDS011;15458;53.346;-1.688;2023-03-01T08:09:50;4.90;;;1.33;;
28170;SDS011;15458;53.346;-1.688;2023-03-01T08:12:16;5.35;;;1.20;;
28170;SDS011;15458;53.346;-1.688;2023-03-01T08:14:42;4.60;;;1.00;;
28170;SDS011;15458;53.346;-1.688;2023-03-01T08:17:07;2.70;;;1.05;;
28170;SDS011;15458;53.346;-1.688;2023-03-01T08:19:33;4.07;;;1.20;;
28170;SDS011;15458;53.346;-1.688;2023-03-01T08:21:59;4.45;;;1.33;;
28170;SDS011;15458;53.346;-1.688;2023-03-01T08:24:26;5.60;;;1.38;;
28170;SDS011;15458;53.346;-1.688;2023-03-01T08:26:52;6.35;;;1.00;;
28170;SDS011;15458;53.346;-1.688;2023-03-01T08:29:18;5.00;;;2.15;;
28170;SDS011;15458;53.346;-1.688;2023-03-01T08:31:43;6.63;;;1.70;;
28170;SDS011;15458;53.346;-1.688;2023-03-01T08:34:11;2.08;;;1.30;;
28170;SDS011;15458;53.346;-1.688;2023-03-01T08:36:39;4.38;;;1.45;;
28170;SDS011;15458;53.346;-1.688;2023-03-01T08:39:07;9.27;;;2.08;;
28170;SDS011;15458;53.346;-1.688;2023-03-01T08:41:34;6.63;;;2.05;;
28170;SDS011;15458;53.346;-1.688;2023-03-01T08:44:00;6.30;;;1.60;;
28170;SDS011;15458;53.346;-1.688;2023-03-01T08:46:29;4.90;;;2.20;;
28170;SDS011;15458;53.346;-1.688;2023-03-01T08:49:06;8.70;;;1.60;;
28170;SDS011;15458;53.346;-1.688;2023-03-01T08:51:33;10.38;;;1.70;;
28170;SDS011;15458;53.346;-1.688;2023-03-01T08:54:15;4.50;;;1.58;;
28170;SDS011;15458;53.346;-1.688;2023-03-01T08:56:45;6.60;;;1.27;;
28170;SDS011;15458;53.346;-1.688;2023-03-01T08:59:11;7.88;;;1.50;;
28170;SDS011;15458;53.346;-1.688;2023-03-01T09:01:38;3.90;;;1.00;;
28170;SDS011;15458;53.346;-1.688;2023-03-01T09:04:05;7.22;;;1.23;;
28170;SDS011;15458;53.346;-1.688;2023-03-01T09:06:31;3.47;;;1.08;;
28170;SDS011;15458;53.346;-1.688;2023-03-01T09:08:58;3.03;;;1.30;;
28170;SDS011;15458;53.346;-1.688;2023-03-01T09:11:24;6.55;;;1.40;;
28170;SDS011;15458;53.346;-1.688;2023-03-01T09:13:50;8.02;;;2.10;;
28170;SDS011;15458;53.346;-1.688;2023-03-01T09:16:17;3.63;;;1.35;;
28170;SDS011;15458;53.346;-1.688;2023-03-01T09:18:48;3.63;;;1.35;;
28170;SDS011;15458;53.346;-1.688;2023-03-01T09:21:19;7.55;;;1.50;;
28170;SDS011;15458;53.346;-1.688;2023-03-01T09:23:46;5.97;;;1.50;;
28170;SDS011;15458;53.346;-1.688;2023-03-01T09:26:14;2.22;;;0.88;;
28170;SDS011;15458;53.346;-1.688;2023-03-01T09:28:41;3.70;;;1.10;;
28170;SDS011;15458;53.346;-1.688;2023-03-01T09:31:09;6.63;;;1.05;;
28170;SDS011;15458;53.346;-1.688;2023-03-01T09:33:36;4.38;;;1.10;;
28170;SDS011;15458;53.346;-1.688;2023-03-01T09:36:05;2.42;;;0.80;;
28170;SDS011;15458;53.346;-1.688;2023-03-01T09:38:35;4.43;;;0.95;;
28170;SDS011;15458;53.346;-1.688;2023-03-01T09:41:01;3.90;;;0.68;;
28170;SDS011;15458;53.346;-1.688;2023-03-01T09:44:01;2.88;;;1.00;;
28170;SDS011;15458;53.346;-1.688;2023-03-01T09:46:24;5.22;;;1.15;;
28170;SDS011;15458;53.346;-1.688;2023-03-01T09:48:53;5.80;;;1.10;;
28170;SDS011;15458;53.346;-1.688;2023-03-01T09:51:32;2.55;;;0.90;;
28170;SDS011;15458;53.346;-1.688;2023-03-01T09:54:03;3.47;;;0.80;;
28170;SDS011;15458;53.346;-1.688;2023-03-01T09:56:36;8.50;;;1.20;;
28170;SDS011;15458;53.346;-1.688;2023-03-01T09:59:23;2.15;;;1.10;;
28170;SDS011;15458;53.346;-1.688;2023-03-01T10:04:54;5.32;;;2.05;;
28170;SDS011;15458;53.346;-1.688;2023-03-01T10:09:58;3.80;;;1.92;;
28170;SDS011;15458;53.346;-1.688;2023-03-01T10:12:32;9.18;;;1.08;;
28170;SDS011;15458;53.346;-1.688;2023-03-01T10:15:22;4.57;;;1.10;;
28170;SDS011;15458;53.346;-1.688;2023-03-01T10:18:01;5.60;;;1.35;;
28170;SDS011;15458;53.346;-1.688;2023-03-01T10:23:13;4.05;;;0.88;;
28170;SDS011;15458;53.346;-1.688;2023-03-01T10:28:31;5.35;;;1.30;;
28170;SDS011;15458;53.346;-1.688;2023-03-01T10:31:09;2.63;;;0.88;;
28170;SDS011;15458;53.346;-1.688;2023-03-01T10:33:39;8.63;;;1.30;;
28170;SDS011;15458;53.346;-1.688;2023-03-01T10:36:06;9.65;;;2.70;;
28170;SDS011;15458;53.346;-1.688;2023-03-01T10:38:46;6.85;;;1.50;;
28170;SDS011;15458;53.346;-1.688;2023-03-01T10:41:20;5.82;;;1.38;;
28170;SDS011;15458;53.346;-1.688;2023-03-01T10:43:54;7.20;;;1.20;;
28170;SDS011;15458;53.346;-1.688;2023-03-01T10:46:32;5.50;;;1.00;;
28170;SDS011;15458;53.346;-1.688;2023-03-01T10:51:41;4.38;;;0.80;;
28170;SDS011;15458;53.346;-1.688;2023-03-01T10:57:09;2.20;;;1.05;;
28170;SDS011;15458;53.346;-1.688;2023-03-01T10:59:51;5.53;;;1.52;;
28170;SDS011;15458;53.346;-1.688;2023-03-01T11:02:35;6.20;;;1.20;;
28170;SDS011;15458;53.346;-1.688;2023-03-01T11:07:33;4.30;;;0.85;;
28170;SDS011;15458;53.346;-1.688;2023-03-01T11:10:17;5.28;;;0.90;;
28170;SDS011;15458;53.346;-1.688;2023-03-01T11:12:44;5.80;;;1.20;;
28170;SDS011;15458;53.346;-1.688;2023-03-01T11:15:19;3.33;;;0.90;;
28170;SDS011;15458;53.346;-1.688;2023-03-01T11:17:51;5.22;;;0.98;;
28170;SDS011;15458;53.346;-1.688;2023-03-01T11:22:55;5.38;;;1.60;;
28170;SDS011;15458;53.346;-1.688;2023-03-01T11:25:29;3.45;;;1.15;;
28170;SDS011;15458;53.346;-1.688;2023-03-01T11:28:17;4.97;;;1.50;;
28170;SDS011;15458;53.346;-1.688;2023-03-01T11:30:52;8.00;;;1.70;;
28170;SDS011;15458;53.346;-1.688;2023-03-01T11:33:36;5.80;;;1.33;;
28170;SDS011;15458;53.346;-1.688;2023-03-01T11:38:40;4.65;;;1.30;;
28170;SDS011;15458;53.346;-1.688;2023-03-01T11:43:40;4.03;;;0.80;;
28170;SDS011;15458;53.346;-1.688;2023-03-01T11:57:11;8.80;;;2.10;;
28170;SDS011;15458;53.346;-1.688;2023-03-01T12:11:31;3.65;;;1.65;;
28170;SDS011;15458;53.346;-1.688;2023-03-01T12:22:29;3.60;;;1.33;;
28170;SDS011;15458;53.346;-1.688;2023-03-01T12:34:01;3.40;;;0.98;;
28170;SDS011;15458;53.346;-1.688;2023-03-01T12:50:43;6.90;;;1.50;;
28170;SDS011;15458;53.346;-1.688;2023-03-01T12:53:20;6.82;;;1.50;;
28170;SDS011;15458;53.346;-1.688;2023-03-01T12:55:47;8.07;;;2.05;;
28170;SDS011;15458;53.346;-1.688;2023-03-01T13:11:48;8.13;;;1.27;;
28170;SDS011;15458;53.346;-1.688;2023-03-01T13:16:51;4.88;;;1.35;;
28170;SDS011;15458;53.346;-1.688;2023-03-01T13:19:27;5.28;;;1.30;;
28170;SDS011;15458;53.346;-1.688;2023-03-01T13:22:01;6.20;;;1.30;;
28170;SDS011;15458;53.346;-1.688;2023-03-01T13:25:02;4.10;;;0.90;;
28170;SDS011;15458;53.346;-1.688;2023-03-01T13:27:38;4.45;;;1.20;;
28170;SDS011;15458;53.346;-1.688;2023-03-01T13:30:04;7.57;;;1.27;;
28170;SDS011;15458;53.346;-1.688;2023-03-01T13:32:49;12.20;;;1.58;;
28170;SDS011;15458;53.346;-1.688;2023-03-01T13:37:42;3.28;;;1.02;;
28170;SDS011;15458;53.346;-1.688;2023-03-01T13:40:56;3.92;;;0.82;;
28170;SDS011;15458;53.346;-1.688;2023-03-01T13:42:53;5.47;;;1.40;;
28170;SDS011;15458;53.346;-1.688;2023-03-01T13:45:21;3.17;;;0.98;;
28170;SDS011;15458;53.346;-1.688;2023-03-01T13:47:58;2.95;;;0.90;;
28170;SDS011;15458;53.346;-1.688;2023-03-01T13:50:28;7.85;;;2.42;;
28170;SDS011;15458;53.346;-1.688;2023-03-01T13:53:02;4.20;;;1.17;;
28170;SDS011;15458;53.346;-1.688;2023-03-01T13:58:16;5.72;;;0.82;;
28170;SDS011;15458;53.346;-1.688;2023-03-01T14:00:44;2.85;;;0.90;;
28170;SDS011;15458;53.346;-1.688;2023-03-01T14:05:40;3.13;;;0.80;;
28170;SDS011;15458;53.346;-1.688;2023-03-01T14:08:20;2.67;;;0.90;;
28170;SDS011;15458;53.346;-1.688;2023-03-01T14:10:54;3.08;;;0.77;;
28170;SDS011;15458;53.346;-1.688;2023-03-01T14:13:38;5.15;;;0.80;;
28170;SDS011;15458;53.346;-1.688;2023-03-01T14:18:43;4.70;;;0.55;;
28170;SDS011;15458;53.346;-1.688;2023-03-01T14:21:30;4.68;;;0.93;;
28170;SDS011;15458;53.346;-1.688;2023-03-01T14:23:57;2.17;;;0.70;;
28170;SDS011;15458;53.346;-1.688;2023-03-01T14:26:24;3.15;;;0.68;;
28170;SDS011;15458;53.346;-1.688;2023-03-01T14:28:52;2.28;;;0.77;;
28170;SDS011;15458;53.346;-1.688;2023-03-01T14:33:56;3.85;;;0.77;;
28170;SDS011;15458;53.346;-1.688;2023-03-01T14:36:32;5.97;;;0.93;;
28170;SDS011;15458;53.346;-1.688;2023-03-01T14:38:59;3.38;;;1.10;;
28170;SDS011;15458;53.346;-1.688;2023-03-01T14:41:30;5.07;;;0.85;;
28170;SDS011;15458;53.346;-1.688;2023-03-01T14:44:12;4.20;;;0.70;;
28170;SDS011;15458;53.346;-1.688;2023-03-01T14:46:43;6.32;;;0.85;;
28170;SDS011;15458;53.346;-1.688;2023-03-01T14:49:19;5.90;;;0.80;;
28170;SDS011;15458;53.346;-1.688;2023-03-01T14:51:52;5.38;;;1.27;;
28170;SDS011;15458;53.346;-1.688;2023-03-01T14:54:27;6.18;;;1.13;;
28170;SDS011;15458;53.346;-1.688;2023-03-01T14:57:05;4.53;;;1.27;;
28170;SDS011;15458;53.346;-1.688;2023-03-01T14:59:40;3.38;;;1.17;;
28170;SDS011;15458;53.346;-1.688;2023-03-01T15:02:13;3.28;;;0.80;;
28170;SDS011;15458;53.346;-1.688;2023-03-01T15:04:45;6.65;;;1.30;;
28170;SDS011;15458;53.346;-1.688;2023-03-01T15:07:13;4.15;;;1.10;;
28170;SDS011;15458;53.346;-1.688;2023-03-01T15:09:39;5.57;;;0.90;;
28170;SDS011;15458;53.346;-1.688;2023-03-01T15:14:53;5.13;;;1.17;;
28170;SDS011;15458;53.346;-1.688;2023-03-01T15:19:57;4.97;;;0.90;;
28170;SDS011;15458;53.346;-1.688;2023-03-01T15:22:23;6.18;;;0.77;;
28170;SDS011;15458;53.346;-1.688;2023-03-01T15:24:51;3.78;;;0.80;;
28170;SDS011;15458;53.346;-1.688;2023-03-01T15:27:19;2.47;;;0.90;;
28170;SDS011;15458;53.346;-1.688;2023-03-01T15:29:49;4.53;;;0.65;;
28170;SDS011;15458;53.346;-1.688;2023-03-01T15:32:29;7.20;;;1.10;;
28170;SDS011;15458;53.346;-1.688;2023-03-01T15:35:00;2.97;;;0.98;;
28170;SDS011;15458;53.346;-1.688;2023-03-01T15:37:47;8.10;;;1.45;;
28170;SDS011;15458;53.346;-1.688;2023-03-01T15:40:21;4.05;;;1.67;;
28170;SDS011;15458;53.346;-1.688;2023-03-01T15:42:49;4.97;;;1.70;;
28170;SDS011;15458;53.346;-1.688;2023-03-01T15:47:52;5.70;;;1.20;;
28170;SDS011;15458;53.346;-1.688;2023-03-01T15:50:22;6.10;;;1.45;;
28170;SDS011;15458;53.346;-1.688;2023-03-01T15:52:58;5.80;;;1.30;;
28170;SDS011;15458;53.346;-1.688;2023-03-01T15:55:31;3.25;;;0.90;;
28170;SDS011;15458;53.346;-1.688;2023-03-01T15:58:06;2.65;;;0.90;;
28170;SDS011;15458;53.346;-1.688;2023-03-01T16:00:40;4.72;;;1.10;;
28170;SDS011;15458;53.346;-1.688;2023-03-01T16:03:11;2.20;;;1.25;;
28170;SDS011;15458;53.346;-1.688;2023-03-01T16:05:37;3.30;;;1.00;;
28170;SDS011;15458;53.346;-1.688;2023-03-01T16:08:06;2.38;;;1.10;;
28170;SDS011;15458;53.346;-1.688;2023-03-01T16:10:32;1.08;;;0.90;;
28170;SDS011;15458;53.346;-1.688;2023-03-01T16:12:59;2.17;;;1.10;;
28170;SDS011;15458;53.346;-1.688;2023-03-01T16:15:29;0.90;;;0.85;;
28170;SDS011;15458;53.346;-1.688;2023-03-01T16:18:03;3.22;;;1.13;;
28170;SDS011;15458;53.346;-1.688;2023-03-01T16:20:30;2.85;;;1.50;;
28170;SDS011;15458;53.346;-1.688;2023-03-01T16:23:00;1.90;;;1.50;;
28170;SDS011;15458;53.346;-1.688;2023-03-01T16:25:28;4.85;;;1.60;;
28170;SDS011;15458;53.346;-1.688;2023-03-01T16:27:55;3.53;;;1.27;;
28170;SDS011;15458;53.346;-1.688;2023-03-01T16:30:23;6.03;;;1.23;;
28170;SDS011;15458;53.346;-1.688;2023-03-01T16:32:49;4.35;;;1.40;;
28170;SDS011;15458;53.346;-1.688;2023-03-01T16:35:17;4.00;;;1.50;;
28170;SDS011;15458;53.346;-1.688;2023-03-01T16:37:45;4.20;;;1.80;;
28170;SDS011;15458;53.346;-1.688;2023-03-01T16:40:19;5.70;;;1.83;;
28170;SDS011;15458;53.346;-1.688;2023-03-01T16:42:50;6.47;;;1.75;;
28170;SDS011;15458;53.346;-1.688;2023-03-01T16:45:17;6.10;;;2.03;;
28170;SDS011;15458;53.346;-1.688;2023-03-01T17:04:23;5.53;;;1.85;;
28170;SDS011;15458;53.346;-1.688;2023-03-01T17:06:58;4.25;;;1.17;;
28170;SDS011;15458;53.346;-1.688;2023-03-01T17:09:29;4.57;;;1.30;;
28170;SDS011;15458;53.346;-1.688;2023-03-01T17:12:11;2.15;;;0.73;;
28170;SDS011;15458;53.346;-1.688;2023-03-01T17:14:40;3.80;;;0.80;;
28170;SDS011;15458;53.346;-1.688;2023-03-01T17:17:09;5.38;;;0.77;;
28170;SDS011;15458;53.346;-1.688;2023-03-01T17:19:36;7.38;;;1.20;;
28170;SDS011;15458;53.346;-1.688;2023-03-01T17:22:08;2.92;;;1.10;;
28170;SDS011;15458;53.346;-1.688;2023-03-01T17:24:36;4.65;;;1.40;;
28170;SDS011;15458;53.346;-1.688;2023-03-01T17:27:03;5.75;;;1.52;;
28170;SDS011;15458;53.346;-1.688;2023-03-01T17:29:29;4.43;;;1.42;;